sensor_id;sensor_type;location;lat;lon;timestamp;temperature;humidity
12504;DHT22;6316;48.118;-1.690;2022-07-09T00:00:05;19.80;95.10
12504;DHT22;6316;48.118;-1.690;2022-07-09T00:02:31;19.70;95.10
12504;DHT22;6316;48.118;-1.690;2022-07-09T00:04:57;19.70;95.20
12504;DHT22;6316;48.118;-1.690;2022-07-09T00:07:23;19.70;95.20
12504;DHT22;6316;48.118;-1.690;2022-07-09T00:09:48;19.70;95.30
12504;DHT22;6316;48.118;-1.690;2022-07-09T00:12:14;19.60;95.30
12504;DHT22;6316;48.118;-1.690;2022-07-09T00:14:39;19.60;95.30
12504;DHT22;6316;48.118;-1.690;2022-07-09T00:17:05;19.60;95.40
12504;DHT22;6316;48.118;-1.690;2022-07-09T00:19:31;19.60;95.40
12504;DHT22;6316;48.118;-1.690;2022-07-09T00:21:56;19.50;95.40
12504;DHT22;6316;48.118;-1.690;2022-07-09T00:24:22;19.50;95.50
12504;DHT22;6316;48.118;-1.690;2022-07-09T00:26:48;19.50;95.50
12504;DHT22;6316;48.118;-1.690;2022-07-09T00:29:13;19.50;95.50
12504;DHT22;6316;48.118;-1.690;2022-07-09T00:31:39;19.50;95.50
12504;DHT22;6316;48.118;-1.690;2022-07-09T00:34:05;19.40;95.60
12504;DHT22;6316;48.118;-1.690;2022-07-09T00:36:30;19.40;95.60
12504;DHT22;6316;48.118;-1.690;2022-07-09T00:38:56;19.40;95.60
12504;DHT22;6316;48.118;-1.690;2022-07-09T00:41:21;19.40;95.70
12504;DHT22;6316;48.118;-1.690;2022-07-09T00:43:48;19.40;95.70
12504;DHT22;6316;48.118;-1.690;2022-07-09T00:46:15;19.30;95.70
12504;DHT22;6316;48.118;-1.690;2022-07-09T00:48:41;19.30;95.70
12504;DHT22;6316;48.118;-1.690;2022-07-09T00:51:08;19.30;95.80
12504;DHT22;6316;48.118;-1.690;2022-07-09T00:53:34;19.20;95.80
12504;DHT22;6316;48.118;-1.690;2022-07-09T00:56:00;19.30;95.80
12504;DHT22;6316;48.118;-1.690;2022-07-09T00:58:26;19.20;95.80
12504;DHT22;6316;48.118;-1.690;2022-07-09T01:00:53;19.20;95.90
12504;DHT22;6316;48.118;-1.690;2022-07-09T01:03:19;19.20;95.90
12504;DHT22;6316;48.118;-1.690;2022-07-09T01:05:45;19.20;96.00
12504;DHT22;6316;48.118;-1.690;2022-07-09T01:08:11;19.10;96.00
12504;DHT22;6316;48.118;-1.690;2022-07-09T01:10:37;19.10;96.10
12504;DHT22;6316;48.118;-1.690;2022-07-09T01:13:04;19.10;96.10
12504;DHT22;6316;48.118;-1.690;2022-07-09T01:15:30;19.10;96.10
12504;DHT22;6316;48.118;-1.690;2022-07-09T01:17:56;19.10;96.20
12504;DHT22;6316;48.118;-1.690;2022-07-09T01:20:25;19.00;96.20
12504;DHT22;6316;48.118;-1.690;2022-07-09T01:22:51;19.00;96.20
12504;DHT22;6316;48.118;-1.690;2022-07-09T01:25:19;19.00;96.30
12504;DHT22;6316;48.118;-1.690;2022-07-09T01:27:46;19.00;96.30
12504;DHT22;6316;48.118;-1.690;2022-07-09T01:30:23;19.00;96.30
12504;DHT22;6316;48.118;-1.690;2022-07-09T01:32:49;18.90;96.30
12504;DHT22;6316;48.118;-1.690;2022-07-09T01:35:15;18.90;96.40
12504;DHT22;6316;48.118;-1.690;2022-07-09T01:37:41;18.90;96.40
12504;DHT22;6316;48.118;-1.690;2022-07-09T01:40:07;18.80;96.40
12504;DHT22;6316;48.118;-1.690;2022-07-09T01:42:32;18.90;96.50
12504;DHT22;6316;48.118;-1.690;2022-07-09T01:44:58;18.80;96.50
12504;DHT22;6316;48.118;-1.690;2022-07-09T01:47:24;18.80;96.50
12504;DHT22;6316;48.118;-1.690;2022-07-09T01:49:49;18.80;96.50
12504;DHT22;6316;48.118;-1.690;2022-07-09T01:52:15;18.80;96.60
12504;DHT22;6316;48.118;-1.690;2022-07-09T01:54:40;18.70;96.60
12504;DHT22;6316;48.118;-1.690;2022-07-09T01:57:06;18.70;96.60
12504;DHT22;6316;48.118;-1.690;2022-07-09T01:59:32;18.70;96.60
12504;DHT22;6316;48.118;-1.690;2022-07-09T02:01:57;18.70;96.70
12504;DHT22;6316;48.118;-1.690;2022-07-09T02:04:23;18.60;96.70
12504;DHT22;6316;48.118;-1.690;2022-07-09T02:06:49;18.60;96.70
12504;DHT22;6316;48.118;-1.690;2022-07-09T02:09:14;18.60;96.80
12504;DHT22;6316;48.118;-1.690;2022-07-09T02:11:40;18.60;96.80
12504;DHT22;6316;48.118;-1.690;2022-07-09T02:14:05;18.60;96.80
12504;DHT22;6316;48.118;-1.690;2022-07-09T02:16:31;18.50;96.80
12504;DHT22;6316;48.118;-1.690;2022-07-09T02:18:57;18.50;96.80
12504;DHT22;6316;48.118;-1.690;2022-07-09T02:21:22;18.50;96.90
12504;DHT22;6316;48.118;-1.690;2022-07-09T02:23:48;18.50;96.90
12504;DHT22;6316;48.118;-1.690;2022-07-09T02:26:14;18.50;96.90
12504;DHT22;6316;48.118;-1.690;2022-07-09T02:28:40;18.40;96.90
12504;DHT22;6316;48.118;-1.690;2022-07-09T02:31:07;18.40;97.00
12504;DHT22;6316;48.118;-1.690;2022-07-09T02:33:33;18.40;97.00
12504;DHT22;6316;48.118;-1.690;2022-07-09T02:35:59;18.40;97.00
12504;DHT22;6316;48.118;-1.690;2022-07-09T02:38:24;18.30;97.00
12504;DHT22;6316;48.118;-1.690;2022-07-09T02:40:50;18.30;97.10
12504;DHT22;6316;48.118;-1.690;2022-07-09T02:43:16;18.30;97.10
12504;DHT22;6316;48.118;-1.690;2022-07-09T02:45:41;18.30;97.10
12504;DHT22;6316;48.118;-1.690;2022-07-09T02:48:07;18.30;97.10
12504;DHT22;6316;48.118;-1.690;2022-07-09T02:50:33;18.30;97.20
12504;DHT22;6316;48.118;-1.690;2022-07-09T02:52:58;18.20;97.20
12504;DHT22;6316;48.118;-1.690;2022-07-09T02:55:24;18.30;97.20
12504;DHT22;6316;48.118;-1.690;2022-07-09T02:57:49;18.20;97.20
12504;DHT22;6316;48.118;-1.690;2022-07-09T03:00:15;18.20;97.20
12504;DHT22;6316;48.118;-1.690;2022-07-09T03:02:41;18.20;97.30
12504;DHT22;6316;48.118;-1.690;2022-07-09T03:05:07;18.20;97.30
12504;DHT22;6316;48.118;-1.690;2022-07-09T03:07:32;18.20;97.30
12504;DHT22;6316;48.118;-1.690;2022-07-09T03:09:58;18.20;97.40
12504;DHT22;6316;48.118;-1.690;2022-07-09T03:12:24;18.10;97.40
12504;DHT22;6316;48.118;-1.690;2022-07-09T03:14:49;18.20;97.40
12504;DHT22;6316;48.118;-1.690;2022-07-09T03:17:15;18.10;97.40
12504;DHT22;6316;48.118;-1.690;2022-07-09T03:19:41;18.10;97.40
12504;DHT22;6316;48.118;-1.690;2022-07-09T03:22:06;18.10;97.40
12504;DHT22;6316;48.118;-1.690;2022-07-09T03:24:32;18.10;97.40
12504;DHT22;6316;48.118;-1.690;2022-07-09T03:26:58;18.00;97.40
12504;DHT22;6316;48.118;-1.690;2022-07-09T03:29:23;18.00;97.50
12504;DHT22;6316;48.118;-1.690;2022-07-09T03:31:49;18.00;97.50
12504;DHT22;6316;48.118;-1.690;2022-07-09T03:34:14;18.00;97.50
12504;DHT22;6316;48.118;-1.690;2022-07-09T03:36:40;18.00;97.50
12504;DHT22;6316;48.118;-1.690;2022-07-09T03:39:06;17.90;97.50
12504;DHT22;6316;48.118;-1.690;2022-07-09T03:41:32;17.90;97.50
12504;DHT22;6316;48.118;-1.690;2022-07-09T03:43:58;17.90;97.60
12504;DHT22;6316;48.118;-1.690;2022-07-09T03:46:23;17.90;97.60
12504;DHT22;6316;48.118;-1.690;2022-07-09T03:48:49;17.90;97.60
12504;DHT22;6316;48.118;-1.690;2022-07-09T03:51:15;17.90;97.70
12504;DHT22;6316;48.118;-1.690;2022-07-09T03:53:41;17.80;97.70
12504;DHT22;6316;48.118;-1.690;2022-07-09T03:56:07;17.80;97.70
12504;DHT22;6316;48.118;-1.690;2022-07-09T03:58:32;17.80;97.70
12504;DHT22;6316;48.118;-1.690;2022-07-09T04:00:58;17.80;97.70
12504;DHT22;6316;48.118;-1.690;2022-07-09T04:03:24;17.80;97.80
12504;DHT22;6316;48.118;-1.690;2022-07-09T04:05:49;17.80;97.80
12504;DHT22;6316;48.118;-1.690;2022-07-09T04:08:15;17.80;97.80
12504;DHT22;6316;48.118;-1.690;2022-07-09T04:10:41;17.80;97.80
12504;DHT22;6316;48.118;-1.690;2022-07-09T04:13:06;17.80;97.90
12504;DHT22;6316;48.118;-1.690;2022-07-09T04:15:32;17.80;97.90
12504;DHT22;6316;48.118;-1.690;2022-07-09T04:17:58;17.70;97.90
12504;DHT22;6316;48.118;-1.690;2022-07-09T04:20:24;17.70;97.90
12504;DHT22;6316;48.118;-1.690;2022-07-09T04:22:51;17.70;97.90
12504;DHT22;6316;48.118;-1.690;2022-07-09T04:25:18;17.70;97.90
12504;DHT22;6316;48.118;-1.690;2022-07-09T04:27:43;17.70;97.90
12504;DHT22;6316;48.118;-1.690;2022-07-09T04:30:09;17.70;97.90
12504;DHT22;6316;48.118;-1.690;2022-07-09T04:32:36;17.70;98.00
12504;DHT22;6316;48.118;-1.690;2022-07-09T04:35:01;17.70;98.00
12504;DHT22;6316;48.118;-1.690;2022-07-09T04:37:27;17.70;98.00
12504;DHT22;6316;48.118;-1.690;2022-07-09T04:39:53;17.70;98.00
12504;DHT22;6316;48.118;-1.690;2022-07-09T04:42:18;17.70;98.10
12504;DHT22;6316;48.118;-1.690;2022-07-09T04:44:45;17.70;98.10
12504;DHT22;6316;48.118;-1.690;2022-07-09T04:47:11;17.70;98.10
12504;DHT22;6316;48.118;-1.690;2022-07-09T04:49:36;17.70;98.10
12504;DHT22;6316;48.118;-1.690;2022-07-09T04:52:02;17.70;98.10
12504;DHT22;6316;48.118;-1.690;2022-07-09T04:54:27;17.80;98.10
12504;DHT22;6316;48.118;-1.690;2022-07-09T04:56:53;17.80;98.10
12504;DHT22;6316;48.118;-1.690;2022-07-09T04:59:19;17.80;98.20
12504;DHT22;6316;48.118;-1.690;2022-07-09T05:01:44;17.80;98.20
12504;DHT22;6316;48.118;-1.690;2022-07-09T05:04:10;17.80;98.20
12504;DHT22;6316;48.118;-1.690;2022-07-09T05:06:35;17.80;98.20
12504;DHT22;6316;48.118;-1.690;2022-07-09T05:09:01;17.90;98.30
12504;DHT22;6316;48.118;-1.690;2022-07-09T05:11:27;17.90;98.30
12504;DHT22;6316;48.118;-1.690;2022-07-09T05:13:52;17.90;98.30
12504;DHT22;6316;48.118;-1.690;2022-07-09T05:16:18;17.90;98.30
12504;DHT22;6316;48.118;-1.690;2022-07-09T05:18:44;17.90;98.30
12504;DHT22;6316;48.118;-1.690;2022-07-09T05:21:09;17.90;98.30
12504;DHT22;6316;48.118;-1.690;2022-07-09T05:23:35;18.00;98.40
12504;DHT22;6316;48.118;-1.690;2022-07-09T05:26:01;18.00;98.40
12504;DHT22;6316;48.118;-1.690;2022-07-09T05:28:26;18.00;98.40
12504;DHT22;6316;48.118;-1.690;2022-07-09T05:30:52;18.00;98.40
12504;DHT22;6316;48.118;-1.690;2022-07-09T05:33:18;18.00;98.40
12504;DHT22;6316;48.118;-1.690;2022-07-09T05:35:44;18.00;98.40
12504;DHT22;6316;48.118;-1.690;2022-07-09T05:38:10;18.10;98.50
12504;DHT22;6316;48.118;-1.690;2022-07-09T05:40:36;18.10;98.50
12504;DHT22;6316;48.118;-1.690;2022-07-09T05:43:01;18.10;98.50
12504;DHT22;6316;48.118;-1.690;2022-07-09T05:45:27;18.10;98.50
12504;DHT22;6316;48.118;-1.690;2022-07-09T05:47:53;18.10;98.50
12504;DHT22;6316;48.118;-1.690;2022-07-09T05:50:18;18.10;98.60
12504;DHT22;6316;48.118;-1.690;2022-07-09T05:52:44;18.20;98.60
12504;DHT22;6316;48.118;-1.690;2022-07-09T05:55:11;18.20;98.60
12504;DHT22;6316;48.118;-1.690;2022-07-09T05:57:37;18.20;98.60
12504;DHT22;6316;48.118;-1.690;2022-07-09T06:00:03;18.20;98.70
12504;DHT22;6316;48.118;-1.690;2022-07-09T06:02:30;18.30;98.70
12504;DHT22;6316;48.118;-1.690;2022-07-09T06:04:55;18.30;98.70
12504;DHT22;6316;48.118;-1.690;2022-07-09T06:07:21;18.30;98.70
12504;DHT22;6316;48.118;-1.690;2022-07-09T06:09:47;18.40;98.70
12504;DHT22;6316;48.118;-1.690;2022-07-09T06:12:13;18.40;98.80
12504;DHT22;6316;48.118;-1.690;2022-07-09T06:14:38;18.40;98.80
12504;DHT22;6316;48.118;-1.690;2022-07-09T06:17:04;18.50;98.80
12504;DHT22;6316;48.118;-1.690;2022-07-09T06:19:36;18.50;98.80
12504;DHT22;6316;48.118;-1.690;2022-07-09T06:22:02;18.50;98.90
12504;DHT22;6316;48.118;-1.690;2022-07-09T06:24:28;18.60;98.90
12504;DHT22;6316;48.118;-1.690;2022-07-09T06:26:53;18.70;99.00
12504;DHT22;6316;48.118;-1.690;2022-07-09T06:29:20;18.70;99.00
12504;DHT22;6316;48.118;-1.690;2022-07-09T06:31:45;18.80;99.10
12504;DHT22;6316;48.118;-1.690;2022-07-09T06:34:11;18.80;99.10
12504;DHT22;6316;48.118;-1.690;2022-07-09T06:36:38;18.90;99.10
12504;DHT22;6316;48.118;-1.690;2022-07-09T06:39:04;19.00;99.20
12504;DHT22;6316;48.118;-1.690;2022-07-09T06:41:48;19.00;99.20
12504;DHT22;6316;48.118;-1.690;2022-07-09T06:44:13;19.10;99.20
12504;DHT22;6316;48.118;-1.690;2022-07-09T06:46:39;19.50;99.40
12504;DHT22;6316;48.118;-1.690;2022-07-09T06:49:05;20.70;99.50
12504;DHT22;6316;48.118;-1.690;2022-07-09T06:51:32;22.40;98.90
12504;DHT22;6316;48.118;-1.690;2022-07-09T06:53:57;24.20;97.70
12504;DHT22;6316;48.118;-1.690;2022-07-09T06:56:23;25.80;96.60
12504;DHT22;6316;48.118;-1.690;2022-07-09T06:58:49;27.20;95.70
12504;DHT22;6316;48.118;-1.690;2022-07-09T07:01:14;28.50;95.00
12504;DHT22;6316;48.118;-1.690;2022-07-09T07:03:40;29.60;94.30
12504;DHT22;6316;48.118;-1.690;2022-07-09T07:06:05;30.50;93.80
12504;DHT22;6316;48.118;-1.690;2022-07-09T07:08:31;31.10;93.40
12504;DHT22;6316;48.118;-1.690;2022-07-09T07:10:57;31.70;93.20
12504;DHT22;6316;48.118;-1.690;2022-07-09T07:13:23;32.30;93.00
12504;DHT22;6316;48.118;-1.690;2022-07-09T07:15:48;32.80;92.80
12504;DHT22;6316;48.118;-1.690;2022-07-09T07:18:15;33.30;92.60
12504;DHT22;6316;48.118;-1.690;2022-07-09T07:20:44;33.90;92.40
12504;DHT22;6316;48.118;-1.690;2022-07-09T07:23:10;34.40;92.10
12504;DHT22;6316;48.118;-1.690;2022-07-09T07:25:36;34.80;92.00
12504;DHT22;6316;48.118;-1.690;2022-07-09T07:28:02;35.10;91.90
12504;DHT22;6316;48.118;-1.690;2022-07-09T07:30:29;35.30;91.80
12504;DHT22;6316;48.118;-1.690;2022-07-09T07:32:58;35.60;91.70
12504;DHT22;6316;48.118;-1.690;2022-07-09T07:35:24;35.80;91.70
12504;DHT22;6316;48.118;-1.690;2022-07-09T07:37:50;36.10;91.60
12504;DHT22;6316;48.118;-1.690;2022-07-09T07:40:15;36.50;91.50
12504;DHT22;6316;48.118;-1.690;2022-07-09T07:42:42;36.80;91.20
12504;DHT22;6316;48.118;-1.690;2022-07-09T07:45:08;37.20;91.10
12504;DHT22;6316;48.118;-1.690;2022-07-09T07:47:34;37.50;90.90
12504;DHT22;6316;48.118;-1.690;2022-07-09T07:50:00;37.70;90.70
12504;DHT22;6316;48.118;-1.690;2022-07-09T07:52:25;37.90;90.60
12504;DHT22;6316;48.118;-1.690;2022-07-09T07:54:51;38.20;90.60
12504;DHT22;6316;48.118;-1.690;2022-07-09T07:57:17;38.40;90.40
12504;DHT22;6316;48.118;-1.690;2022-07-09T07:59:42;38.70;90.30
12504;DHT22;6316;48.118;-1.690;2022-07-09T08:02:08;39.10;90.20
12504;DHT22;6316;48.118;-1.690;2022-07-09T08:04:34;39.40;90.00
12504;DHT22;6316;48.118;-1.690;2022-07-09T08:07:00;39.90;89.60
12504;DHT22;6316;48.118;-1.690;2022-07-09T08:09:26;40.20;89.10
12504;DHT22;6316;48.118;-1.690;2022-07-09T08:11:52;40.30;88.80
12504;DHT22;6316;48.118;-1.690;2022-07-09T08:14:17;40.30;88.90
12504;DHT22;6316;48.118;-1.690;2022-07-09T08:16:43;40.30;88.80
12504;DHT22;6316;48.118;-1.690;2022-07-09T08:19:08;40.40;88.80
12504;DHT22;6316;48.118;-1.690;2022-07-09T08:21:34;40.50;88.70
12504;DHT22;6316;48.118;-1.690;2022-07-09T08:24:00;40.60;88.60
12504;DHT22;6316;48.118;-1.690;2022-07-09T08:26:29;40.90;88.40
12504;DHT22;6316;48.118;-1.690;2022-07-09T08:28:55;41.10;88.00
12504;DHT22;6316;48.118;-1.690;2022-07-09T08:31:22;41.30;88.00
12504;DHT22;6316;48.118;-1.690;2022-07-09T08:33:48;41.30;87.70
12504;DHT22;6316;48.118;-1.690;2022-07-09T08:36:15;41.30;87.70
12504;DHT22;6316;48.118;-1.690;2022-07-09T08:38:41;41.30;87.80
12504;DHT22;6316;48.118;-1.690;2022-07-09T08:41:07;41.30;87.80
12504;DHT22;6316;48.118;-1.690;2022-07-09T08:43:34;41.30;87.70
12504;DHT22;6316;48.118;-1.690;2022-07-09T08:46:01;41.20;87.70
12504;DHT22;6316;48.118;-1.690;2022-07-09T08:48:27;41.30;87.70
12504;DHT22;6316;48.118;-1.690;2022-07-09T08:50:52;41.40;87.50
12504;DHT22;6316;48.118;-1.690;2022-07-09T08:53:19;41.40;87.30
12504;DHT22;6316;48.118;-1.690;2022-07-09T08:55:45;41.60;87.30
12504;DHT22;6316;48.118;-1.690;2022-07-09T08:58:13;41.50;87.00
12504;DHT22;6316;48.118;-1.690;2022-07-09T09:00:39;41.30;87.00
12504;DHT22;6316;48.118;-1.690;2022-07-09T09:03:05;41.20;87.00
12504;DHT22;6316;48.118;-1.690;2022-07-09T09:05:31;40.90;87.10
12504;DHT22;6316;48.118;-1.690;2022-07-09T09:07:57;40.70;87.40
12504;DHT22;6316;48.118;-1.690;2022-07-09T09:10:27;40.60;87.50
12504;DHT22;6316;48.118;-1.690;2022-07-09T09:13:00;40.40;87.30
12504;DHT22;6316;48.118;-1.690;2022-07-09T09:15:29;40.00;87.40
12504;DHT22;6316;48.118;-1.690;2022-07-09T09:17:56;39.70;87.70
12504;DHT22;6316;48.118;-1.690;2022-07-09T09:20:23;39.60;87.90
12504;DHT22;6316;48.118;-1.690;2022-07-09T09:22:52;39.50;87.80
12504;DHT22;6316;48.118;-1.690;2022-07-09T09:25:37;39.40;87.60
12504;DHT22;6316;48.118;-1.690;2022-07-09T09:28:02;39.20;87.30
12504;DHT22;6316;48.118;-1.690;2022-07-09T09:30:30;38.80;87.10
12504;DHT22;6316;48.118;-1.690;2022-07-09T09:33:03;38.30;87.20
12504;DHT22;6316;48.118;-1.690;2022-07-09T09:35:32;37.80;87.40
12504;DHT22;6316;48.118;-1.690;2022-07-09T09:37:58;37.40;87.60
12504;DHT22;6316;48.118;-1.690;2022-07-09T09:40:25;37.00;87.50
12504;DHT22;6316;48.118;-1.690;2022-07-09T09:42:51;36.40;87.60
12504;DHT22;6316;48.118;-1.690;2022-07-09T09:45:18;35.80;87.70
12504;DHT22;6316;48.118;-1.690;2022-07-09T09:47:48;35.10;88.10
12504;DHT22;6316;48.118;-1.690;2022-07-09T09:50:23;34.40;88.50
12504;DHT22;6316;48.118;-1.690;2022-07-09T09:52:53;33.90;89.10
12504;DHT22;6316;48.118;-1.690;2022-07-09T09:55:23;33.30;89.40
12504;DHT22;6316;48.118;-1.690;2022-07-09T09:57:49;32.80;89.80
12504;DHT22;6316;48.118;-1.690;2022-07-09T10:00:16;32.20;90.00
12504;DHT22;6316;48.118;-1.690;2022-07-09T10:02:46;31.80;90.30
12504;DHT22;6316;48.118;-1.690;2022-07-09T10:05:12;31.40;90.50
12504;DHT22;6316;48.118;-1.690;2022-07-09T10:07:42;31.10;90.60
12504;DHT22;6316;48.118;-1.690;2022-07-09T10:10:15;30.70;90.70
12504;DHT22;6316;48.118;-1.690;2022-07-09T10:12:41;30.50;90.80
12504;DHT22;6316;48.118;-1.690;2022-07-09T10:15:21;30.20;90.90
12504;DHT22;6316;48.118;-1.690;2022-07-09T10:17:47;30.00;90.90
12504;DHT22;6316;48.118;-1.690;2022-07-09T10:20:13;29.90;91.00
12504;DHT22;6316;48.118;-1.690;2022-07-09T10:22:41;29.80;91.00
12504;DHT22;6316;48.118;-1.690;2022-07-09T10:25:08;29.60;91.00
12504;DHT22;6316;48.118;-1.690;2022-07-09T10:27:45;29.50;91.00
12504;DHT22;6316;48.118;-1.690;2022-07-09T10:30:27;29.40;90.90
12504;DHT22;6316;48.118;-1.690;2022-07-09T10:33:08;29.30;90.90
12504;DHT22;6316;48.118;-1.690;2022-07-09T10:35:45;29.20;90.90
12504;DHT22;6316;48.118;-1.690;2022-07-09T10:38:12;29.10;90.90
12504;DHT22;6316;48.118;-1.690;2022-07-09T10:40:43;29.00;90.90
12504;DHT22;6316;48.118;-1.690;2022-07-09T10:43:10;29.00;90.90
12504;DHT22;6316;48.118;-1.690;2022-07-09T10:45:45;28.90;90.90
12504;DHT22;6316;48.118;-1.690;2022-07-09T10:48:15;28.90;90.90
12504;DHT22;6316;48.118;-1.690;2022-07-09T10:50:45;28.80;91.10
12504;DHT22;6316;48.118;-1.690;2022-07-09T10:53:13;28.80;90.80
12504;DHT22;6316;48.118;-1.690;2022-07-09T10:55:43;28.70;90.80
12504;DHT22;6316;48.118;-1.690;2022-07-09T10:58:19;28.70;90.80
12504;DHT22;6316;48.118;-1.690;2022-07-09T11:00:53;28.70;90.70
12504;DHT22;6316;48.118;-1.690;2022-07-09T11:03:24;28.70;90.70
12504;DHT22;6316;48.118;-1.690;2022-07-09T11:05:50;28.70;90.70
12504;DHT22;6316;48.118;-1.690;2022-07-09T11:08:16;28.70;90.60
12504;DHT22;6316;48.118;-1.690;2022-07-09T11:10:42;28.60;90.50
12504;DHT22;6316;48.118;-1.690;2022-07-09T11:13:08;28.60;90.50
12504;DHT22;6316;48.118;-1.690;2022-07-09T11:15:38;28.60;90.50
12504;DHT22;6316;48.118;-1.690;2022-07-09T11:18:09;28.60;90.50
12504;DHT22;6316;48.118;-1.690;2022-07-09T11:20:42;28.50;90.40
12504;DHT22;6316;48.118;-1.690;2022-07-09T11:23:13;28.50;90.30
12504;DHT22;6316;48.118;-1.690;2022-07-09T11:25:39;28.50;90.30
12504;DHT22;6316;48.118;-1.690;2022-07-09T11:28:05;28.50;90.30
12504;DHT22;6316;48.118;-1.690;2022-07-09T11:30:31;28.50;90.30
12504;DHT22;6316;48.118;-1.690;2022-07-09T11:32:58;28.50;90.30
12504;DHT22;6316;48.118;-1.690;2022-07-09T11:35:34;28.60;90.20
12504;DHT22;6316;48.118;-1.690;2022-07-09T11:38:02;28.60;90.10
12504;DHT22;6316;48.118;-1.690;2022-07-09T11:40:29;28.60;90.10
12504;DHT22;6316;48.118;-1.690;2022-07-09T11:42:55;28.60;90.00
12504;DHT22;6316;48.118;-1.690;2022-07-09T11:45:25;28.60;90.00
12504;DHT22;6316;48.118;-1.690;2022-07-09T11:48:12;28.60;90.00
12504;DHT22;6316;48.118;-1.690;2022-07-09T11:50:43;28.60;89.90
12504;DHT22;6316;48.118;-1.690;2022-07-09T11:53:22;28.60;89.70
12504;DHT22;6316;48.118;-1.690;2022-07-09T11:56:02;28.70;89.70
12504;DHT22;6316;48.118;-1.690;2022-07-09T11:58:30;28.70;89.50
12504;DHT22;6316;48.118;-1.690;2022-07-09T12:00:56;28.70;89.50
12504;DHT22;6316;48.118;-1.690;2022-07-09T12:03:25;28.70;89.40
12504;DHT22;6316;48.118;-1.690;2022-07-09T12:05:52;28.80;89.40
12504;DHT22;6316;48.118;-1.690;2022-07-09T12:08:26;28.70;89.10
12504;DHT22;6316;48.118;-1.690;2022-07-09T12:10:53;28.70;89.10
12504;DHT22;6316;48.118;-1.690;2022-07-09T12:13:19;28.70;89.10
12504;DHT22;6316;48.118;-1.690;2022-07-09T12:15:44;28.80;89.10
12504;DHT22;6316;48.118;-1.690;2022-07-09T12:18:10;28.80;89.10
12504;DHT22;6316;48.118;-1.690;2022-07-09T12:20:36;28.90;88.90
12504;DHT22;6316;48.118;-1.690;2022-07-09T12:23:02;28.90;88.70
12504;DHT22;6316;48.118;-1.690;2022-07-09T12:25:27;28.90;88.60
12504;DHT22;6316;48.118;-1.690;2022-07-09T12:27:53;28.80;88.60
12504;DHT22;6316;48.118;-1.690;2022-07-09T12:30:19;28.90;88.60
12504;DHT22;6316;48.118;-1.690;2022-07-09T12:32:46;28.90;88.40
12504;DHT22;6316;48.118;-1.690;2022-07-09T12:35:12;28.90;88.40
12504;DHT22;6316;48.118;-1.690;2022-07-09T12:37:39;28.90;88.30
12504;DHT22;6316;48.118;-1.690;2022-07-09T12:40:06;28.90;88.10
12504;DHT22;6316;48.118;-1.690;2022-07-09T12:42:32;28.90;88.10
12504;DHT22;6316;48.118;-1.690;2022-07-09T12:44:57;28.90;88.10
12504;DHT22;6316;48.118;-1.690;2022-07-09T12:47:23;28.90;88.00
12504;DHT22;6316;48.118;-1.690;2022-07-09T12:49:49;29.00;88.00
12504;DHT22;6316;48.118;-1.690;2022-07-09T12:52:15;29.00;87.80
12504;DHT22;6316;48.118;-1.690;2022-07-09T12:54:41;29.10;87.80
12504;DHT22;6316;48.118;-1.690;2022-07-09T12:57:07;29.10;87.70
12504;DHT22;6316;48.118;-1.690;2022-07-09T12:59:32;29.10;88.30
12504;DHT22;6316;48.118;-1.690;2022-07-09T13:01:58;29.10;87.50
12504;DHT22;6316;48.118;-1.690;2022-07-09T13:04:24;29.10;87.50
12504;DHT22;6316;48.118;-1.690;2022-07-09T13:06:50;29.10;87.40
12504;DHT22;6316;48.118;-1.690;2022-07-09T13:09:16;29.10;87.50
12504;DHT22;6316;48.118;-1.690;2022-07-09T13:11:41;29.10;88.20
12504;DHT22;6316;48.118;-1.690;2022-07-09T13:14:07;29.10;87.40
12504;DHT22;6316;48.118;-1.690;2022-07-09T13:16:35;29.20;87.30
12504;DHT22;6316;48.118;-1.690;2022-07-09T13:19:02;29.20;87.20
12504;DHT22;6316;48.118;-1.690;2022-07-09T13:21:28;29.20;87.10
12504;DHT22;6316;48.118;-1.690;2022-07-09T13:23:55;29.30;87.20
12504;DHT22;6316;48.118;-1.690;2022-07-09T13:26:21;29.30;86.90
12504;DHT22;6316;48.118;-1.690;2022-07-09T13:28:47;29.30;86.80
12504;DHT22;6316;48.118;-1.690;2022-07-09T13:31:12;29.30;86.70
12504;DHT22;6316;48.118;-1.690;2022-07-09T13:33:38;29.30;86.80
12504;DHT22;6316;48.118;-1.690;2022-07-09T13:36:04;29.30;86.70
12504;DHT22;6316;48.118;-1.690;2022-07-09T13:38:31;29.40;86.70
12504;DHT22;6316;48.118;-1.690;2022-07-09T13:40:57;29.40;86.60
12504;DHT22;6316;48.118;-1.690;2022-07-09T13:43:23;29.40;86.40
12504;DHT22;6316;48.118;-1.690;2022-07-09T13:45:51;29.40;86.20
12504;DHT22;6316;48.118;-1.690;2022-07-09T13:48:17;29.40;86.20
12504;DHT22;6316;48.118;-1.690;2022-07-09T13:50:42;29.40;86.20
12504;DHT22;6316;48.118;-1.690;2022-07-09T13:53:08;29.50;86.10
12504;DHT22;6316;48.118;-1.690;2022-07-09T13:55:35;29.50;86.90
12504;DHT22;6316;48.118;-1.690;2022-07-09T13:58:01;29.60;86.10
12504;DHT22;6316;48.118;-1.690;2022-07-09T14:00:26;29.60;86.00
12504;DHT22;6316;48.118;-1.690;2022-07-09T14:02:52;29.70;85.90
12504;DHT22;6316;48.118;-1.690;2022-07-09T14:05:18;29.70;85.90
12504;DHT22;6316;48.118;-1.690;2022-07-09T14:07:45;29.70;85.80
12504;DHT22;6316;48.118;-1.690;2022-07-09T14:10:11;29.80;85.80
12504;DHT22;6316;48.118;-1.690;2022-07-09T14:12:36;29.90;85.80
12504;DHT22;6316;48.118;-1.690;2022-07-09T14:15:02;29.80;85.80
12504;DHT22;6316;48.118;-1.690;2022-07-09T14:17:28;29.70;85.90
12504;DHT22;6316;48.118;-1.690;2022-07-09T14:19:54;29.60;86.00
12504;DHT22;6316;48.118;-1.690;2022-07-09T14:22:19;29.60;86.10
12504;DHT22;6316;48.118;-1.690;2022-07-09T14:24:45;29.60;86.10
12504;DHT22;6316;48.118;-1.690;2022-07-09T14:27:11;29.70;86.10
12504;DHT22;6316;48.118;-1.690;2022-07-09T14:29:37;29.70;86.00
12504;DHT22;6316;48.118;-1.690;2022-07-09T14:32:04;29.70;86.00
12504;DHT22;6316;48.118;-1.690;2022-07-09T14:34:29;29.70;86.00
12504;DHT22;6316;48.118;-1.690;2022-07-09T14:36:55;29.70;86.00
12504;DHT22;6316;48.118;-1.690;2022-07-09T14:39:21;29.70;86.00
12504;DHT22;6316;48.118;-1.690;2022-07-09T14:41:47;29.70;86.00
12504;DHT22;6316;48.118;-1.690;2022-07-09T14:44:13;29.70;86.00
12504;DHT22;6316;48.118;-1.690;2022-07-09T14:46:40;29.70;86.00
12504;DHT22;6316;48.118;-1.690;2022-07-09T14:49:05;29.70;86.00
12504;DHT22;6316;48.118;-1.690;2022-07-09T14:51:32;29.70;86.00
12504;DHT22;6316;48.118;-1.690;2022-07-09T14:53:59;29.70;86.00
12504;DHT22;6316;48.118;-1.690;2022-07-09T14:56:25;29.70;86.00
12504;DHT22;6316;48.118;-1.690;2022-07-09T14:58:50;29.70;85.90
12504;DHT22;6316;48.118;-1.690;2022-07-09T15:01:16;29.70;86.00
12504;DHT22;6316;48.118;-1.690;2022-07-09T15:03:42;29.80;86.00
12504;DHT22;6316;48.118;-1.690;2022-07-09T15:06:08;29.70;85.90
12504;DHT22;6316;48.118;-1.690;2022-07-09T15:08:34;29.70;85.90
12504;DHT22;6316;48.118;-1.690;2022-07-09T15:11:00;29.80;86.00
12504;DHT22;6316;48.118;-1.690;2022-07-09T15:13:27;29.70;86.00
12504;DHT22;6316;48.118;-1.690;2022-07-09T15:15:56;29.70;86.00
12504;DHT22;6316;48.118;-1.690;2022-07-09T15:18:21;29.70;86.00
12504;DHT22;6316;48.118;-1.690;2022-07-09T15:20:47;29.70;86.00
12504;DHT22;6316;48.118;-1.690;2022-07-09T15:23:13;29.70;86.20
12504;DHT22;6316;48.118;-1.690;2022-07-09T15:25:39;29.70;86.90